Time;durP1;ratioP1;P1;durP2;ratioP2;P2;SDS_P1;SDS_P2;PMS_P1;PMS_P2;Temp;Humidity;BMP_temperature;BMP_pressure;BME280_temperature;BME280_humidity;BME280_pressure;Samples;Min_cycle;Max_cycle;Signal;HPM_P1;HPM_P2
2023/05/10 00:00:23;;;;;;;37.00;15.87;;;11.60;99.90;;;;;;5090403;28;20233;-76
2023/05/10 00:02:49;;;;;;;41.90;16.93;;;11.60;99.90;;;;;;5090781;28;20351;-82
2023/05/10 00:05:15;;;;;;;32.93;16.07;;;11.80;99.90;;;;;;5092279;28;20204;-81
2023/05/10 00:07:44;;;;;;;34.83;15.80;;;11.60;99.90;;;;;;5077196;28;20187;-82
2023/05/10 00:10:10;;;;;;;36.63;14.97;;;11.70;99.90;;;;;;5076564;28;20543;-82
2023/05/10 00:12:36;;;;;;;42.37;16.53;;;11.60;99.90;;;;;;5079763;28;20191;-82
2023/05/10 00:15:03;;;;;;;39.50;17.17;;;11.70;99.90;;;;;;5102839;28;20178;-82
2023/05/10 00:17:28;;;;;;;40.67;17.20;;;11.70;99.90;;;;;;5106513;28;20167;-82
2023/05/10 00:19:54;;;;;;;37.03;16.30;;;11.70;99.90;;;;;;5104440;28;20258;-82
2023/05/10 00:22:20;;;;;;;39.33;18.07;;;11.70;99.90;;;;;;5096282;28;20179;-82
2023/05/10 00:24:46;;;;;;;40.13;18.13;;;11.80;99.90;;;;;;5095102;28;20176;-82
2023/05/10 00:27:11;;;;;;;44.87;17.07;;;11.90;99.90;;;;;;5094832;28;20180;-82
2023/05/10 00:29:37;;;;;;;41.90;18.30;;;12.00;99.90;;;;;;5094628;28;20168;-82
2023/05/10 00:32:03;;;;;;;51.03;18.10;;;11.90;99.90;;;;;;5095304;28;20255;-82
2023/05/10 00:34:29;;;;;;;41.17;17.47;;;11.90;99.90;;;;;;5094867;28;20258;-82
2023/05/10 00:36:54;;;;;;;43.33;18.50;;;11.80;99.90;;;;;;5094860;28;20167;-82
2023/05/10 00:39:20;;;;;;;49.00;18.40;;;11.90;99.90;;;;;;5094763;28;20228;-81
2023/05/10 00:41:45;;;;;;;42.50;18.80;;;11.80;99.90;;;;;;5094054;28;20168;-83
2023/05/10 00:44:11;;;;;;;39.53;16.10;;;11.80;99.90;;;;;;5090510;28;20179;-83
2023/05/10 00:46:37;;;;;;;37.87;17.80;;;11.80;99.90;;;;;;5080793;28;20216;-82
2023/05/10 00:49:02;;;;;;;37.63;16.60;;;11.80;99.90;;;;;;5073999;28;20190;-81
2023/05/10 00:51:28;;;;;;;43.17;17.40;;;11.90;99.90;;;;;;5074110;28;20184;-81
2023/05/10 00:53:55;;;;;;;32.77;15.67;;;11.90;99.90;;;;;;5086664;28;20194;-82
2023/05/10 00:56:22;;;;;;;33.07;15.07;;;11.90;99.90;;;;;;5084516;28;20259;-81
2023/05/10 00:58:48;;;;;;;33.93;15.73;;;11.90;99.90;;;;;;5091223;28;20214;-81
2023/05/10 01:01:14;;;;;;;37.50;16.67;;;11.90;99.90;;;;;;5094329;28;20192;-68
2023/05/10 01:03:40;;;;;;;35.70;16.50;;;12.00;99.90;;;;;;5094280;28;20174;-76
2023/05/10 01:06:06;;;;;;;32.07;17.30;;;12.00;99.90;;;;;;5094143;28;20219;-76
2023/05/10 01:08:32;;;;;;;38.07;17.37;;;12.00;99.90;;;;;;5094183;28;20164;-76
2023/05/10 01:10:58;;;;;;;35.90;17.73;;;11.90;99.90;;;;;;5094111;28;20176;-76
2023/05/10 01:13:35;;;;;;;36.63;18.43;;;11.90;99.90;;;;;;5093950;28;20172;-76
2023/05/10 01:16:02;;;;;;;39.20;18.10;;;11.90;99.90;;;;;;5093913;28;20172;-76
2023/05/10 01:18:30;;;;;;;37.27;18.00;;;11.80;99.90;;;;;;5092803;28;20182;-77
2023/05/10 01:21:41;;;;;;;31.97;16.67;;;11.80;99.90;;;;;;5093908;28;20172;-74
2023/05/10 01:24:39;;;;;;;38.43;18.27;;;11.80;99.90;;;;;;5093730;28;20262;-76
2023/05/10 01:27:26;;;;;;;37.40;17.90;;;11.80;99.90;;;;;;5070156;28;20199;-73
2023/05/10 01:30:10;;;;;;;38.67;18.00;;;11.80;99.90;;;;;;5093318;28;20163;-72
2023/05/10 01:33:04;;;;;;;38.37;17.93;;;11.80;99.90;;;;;;5093405;28;20175;-72
2023/05/10 01:36:06;;;;;;;35.27;19.43;;;11.80;99.90;;;;;;5086064;28;20180;-72
2023/05/10 01:38:53;;;;;;;39.43;19.33;;;11.80;99.90;;;;;;5093822;28;20186;-73
2023/05/10 01:41:27;;;;;;;37.43;18.17;;;11.80;99.90;;;;;;5093414;28;20172;-73
2023/05/10 01:44:16;;;;;;;36.03;18.97;;;11.80;99.90;;;;;;5093444;28;20183;-73
2023/05/10 01:46:42;;;;;;;40.80;18.77;;;11.70;99.90;;;;;;5093358;28;20204;-72
2023/05/10 01:49:16;;;;;;;31.50;18.50;;;11.70;99.90;;;;;;5093089;28;20165;-73
2023/05/10 01:51:47;;;;;;;36.63;18.80;;;11.60;99.90;;;;;;5093101;28;20176;-73
2023/05/10 01:54:15;;;;;;;36.80;18.43;;;11.60;99.90;;;;;;5093306;28;20655;-72
2023/05/10 01:56:43;;;;;;;39.70;19.73;;;11.40;99.90;;;;;;5091641;28;20172;-72
2023/05/10 01:59:13;;;;;;;35.40;18.17;;;11.50;99.90;;;;;;5092765;28;20189;-72
2023/05/10 02:01:40;;;;;;;37.93;18.33;;;11.50;99.90;;;;;;5065330;28;20172;-73
2023/05/10 02:04:08;;;;;;;41.07;18.33;;;11.50;99.90;;;;;;5083817;28;20234;-73
2023/05/10 02:06:35;;;;;;;38.03;17.30;;;11.40;99.90;;;;;;5089317;28;20208;-72
2023/05/10 02:09:02;;;;;;;41.77;18.17;;;11.40;99.90;;;;;;5092945;28;20175;-72
2023/05/10 02:11:29;;;;;;;34.57;15.97;;;11.70;99.90;;;;;;5092964;28;20172;-72
2023/05/10 02:13:56;;;;;;;29.40;14.30;;;11.30;99.90;;;;;;5092013;28;20175;-72
2023/05/10 02:16:25;;;;;;;26.47;14.33;;;11.30;99.90;;;;;;5054547;28;20169;-72
2023/05/10 02:19:01;;;;;;;27.83;14.17;;;11.40;99.90;;;;;;5072831;28;20165;-73
2023/05/10 02:21:27;;;;;;;31.57;14.83;;;11.40;99.90;;;;;;5077672;28;20603;-72
2023/05/10 02:23:54;;;;;;;30.70;14.67;;;11.70;99.90;;;;;;5092226;28;20616;-73
2023/05/10 02:26:23;;;;;;;30.93;14.93;;;11.40;99.90;;;;;;5091998;28;20210;-73
2023/05/10 02:28:50;;;;;;;25.93;14.47;;;11.40;99.90;;;;;;5091198;28;20227;-72
2023/05/10 02:31:17;;;;;;;29.30;14.00;;;11.50;99.90;;;;;;5092077;28;20196;-73
2023/05/10 02:33:44;;;;;;;26.90;13.33;;;11.60;99.90;;;;;;5092381;28;20235;-74
2023/05/10 02:36:12;;;;;;;35.87;14.77;;;11.50;99.90;;;;;;5092105;28;20259;-74
2023/05/10 02:38:38;;;;;;;31.43;13.73;;;11.30;99.90;;;;;;5092219;28;20218;-74
2023/05/10 02:41:05;;;;;;;29.23;13.93;;;11.50;99.90;;;;;;5092570;28;20225;-74
2023/05/10 02:43:33;;;;;;;32.87;12.87;;;11.60;99.90;;;;;;5092087;28;20254;-74
2023/05/10 02:45:58;;;;;;;31.90;13.23;;;11.60;99.90;;;;;;5092276;28;20272;-74
2023/05/10 02:48:24;;;;;;;36.63;13.37;;;11.60;99.90;;;;;;5092235;28;20172;-74
2023/05/10 02:50:52;;;;;;;31.30;13.03;;;11.60;99.90;;;;;;5093665;28;20164;-72
2023/05/10 02:53:27;;;;;;;31.90;12.53;;;11.70;99.90;;;;;;5075805;28;20316;-74
2023/05/10 02:55:56;;;;;;;32.60;12.67;;;11.60;99.90;;;;;;5092084;28;20206;-73
2023/05/10 02:58:22;;;;;;;26.50;12.07;;;;;;;;;;5074392;28;20213;-73
2023/05/10 03:00:48;;;;;;;29.73;12.07;;;11.60;99.90;;;;;;5091934;28;20590;-74
2023/05/10 03:03:13;;;;;;;28.13;11.53;;;11.60;99.90;;;;;;5091832;28;20252;-75
2023/05/10 03:05:39;;;;;;;28.87;11.67;;;11.60;99.90;;;;;;5080493;28;20231;-74
2023/05/10 03:08:05;;;;;;;34.83;12.23;;;11.60;99.90;;;;;;5075459;28;20195;-74
2023/05/10 03:10:33;;;;;;;34.90;11.60;;;11.60;99.90;;;;;;5077217;28;20160;-73
2023/05/10 03:13:29;;;;;;;34.77;12.20;;;11.60;99.90;;;;;;5091449;28;20520;-73
2023/05/10 03:16:24;;;;;;;39.67;12.77;;;11.60;99.90;;;;;;5077270;28;20192;-71
2023/05/10 03:19:16;;;;;;;30.30;12.87;;;11.50;99.90;;;;;;5087564;28;20233;-72
2023/05/10 03:21:47;;;;;;;43.73;13.10;;;11.60;99.90;;;;;;5062574;28;20183;-73
2023/05/10 03:24:15;;;;;;;37.90;12.23;;;11.20;99.90;;;;;;5076513;28;20184;-73
2023/05/10 03:26:44;;;;;;;40.97;11.47;;;11.50;99.90;;;;;;5071204;28;20208;-74
2023/05/10 03:29:12;;;;;;;33.63;11.47;;;11.50;99.90;;;;;;5078931;28;20701;-74
2023/05/10 03:31:38;;;;;;;33.03;11.23;;;11.50;99.90;;;;;;5087462;28;20632;-74
2023/05/10 03:34:04;;;;;;;37.80;11.10;;;11.50;99.90;;;;;;5070229;28;20216;-73
2023/05/10 03:36:30;;;;;;;38.50;11.17;;;11.50;99.90;;;;;;5070441;28;20172;-73
2023/05/10 03:38:55;;;;;;;34.70;11.43;;;11.50;99.90;;;;;;5070370;28;20181;-79
2023/05/10 03:41:21;;;;;;;37.77;10.90;;;11.50;99.90;;;;;;5070311;28;20667;-73
2023/05/10 03:43:47;;;;;;;30.10;10.20;;;11.50;99.90;;;;;;5090145;28;20179;-83
2023/05/10 03:46:12;;;;;;;32.23;10.23;;;11.50;99.90;;;;;;5091382;28;20203;-82
2023/05/10 03:48:39;;;;;;;30.03;10.73;;;11.40;99.90;;;;;;5083245;28;20653;-76
2023/05/10 03:51:04;;;;;;;31.93;10.50;;;11.40;99.90;;;;;;5076396;28;20168;-75
2023/05/10 03:53:30;;;;;;;35.10;10.67;;;11.40;99.90;;;;;;5073957;28;20225;-75
2023/05/10 03:55:55;;;;;;;33.30;10.30;;;11.50;99.90;;;;;;5070974;28;20187;-75
2023/05/10 03:58:21;;;;;;;40.93;11.40;;;11.50;99.90;;;;;;5086646;28;20255;-75
2023/05/10 04:00:47;;;;;;;34.87;11.13;;;;;;;;;;5074809;28;20183;-77
2023/05/10 04:03:13;;;;;;;40.87;11.67;;;11.40;99.90;;;;;;5090685;28;20183;-76
2023/05/10 04:05:39;;;;;;;33.87;10.53;;;11.50;99.90;;;;;;5082381;28;20657;-76
2023/05/10 04:08:05;;;;;;;39.33;11.47;;;11.40;99.90;;;;;;5070629;28;20233;-76
2023/05/10 04:10:31;;;;;;;40.37;10.67;;;11.30;99.90;;;;;;5071171;28;20173;-76
2023/05/10 04:12:57;;;;;;;38.47;11.50;;;11.40;99.90;;;;;;5086857;28;20276;-76
2023/05/10 04:15:23;;;;;;;43.43;11.87;;;11.40;99.90;;;;;;5090673;28;20168;-75
2023/05/10 04:17:48;;;;;;;37.13;12.00;;;11.50;99.90;;;;;;5080932;28;20204;-75
2023/05/10 04:20:14;;;;;;;46.00;11.93;;;11.40;99.90;;;;;;5083419;28;20168;-75
2023/05/10 04:22:40;;;;;;;45.57;12.80;;;11.40;99.90;;;;;;5090592;28;20168;-74
2023/05/10 04:25:06;;;;;;;36.50;10.93;;;11.40;99.90;;;;;;5090610;28;20172;-74
2023/05/10 04:27:32;;;;;;;39.07;10.90;;;11.30;99.90;;;;;;5090597;28;20243;-74
2023/05/10 04:29:58;;;;;;;42.33;11.17;;;11.30;99.90;;;;;;5090722;28;20221;-74
2023/05/10 04:32:24;;;;;;;38.33;9.77;;;11.30;99.90;;;;;;5090633;28;20179;-74
2023/05/10 04:34:51;;;;;;;40.13;11.00;;;11.30;99.90;;;;;;5090886;28;20176;-74
2023/05/10 04:37:17;;;;;;;37.87;10.63;;;;;;;;;;5090586;28;20226;-74
2023/05/10 04:39:43;;;;;;;40.87;10.57;;;11.40;99.90;;;;;;5090873;28;20206;-75
2023/05/10 04:42:09;;;;;;;40.60;11.10;;;11.40;99.90;;;;;;5090871;28;20597;-75
2023/05/10 04:44:35;;;;;;;41.73;12.07;;;11.50;99.90;;;;;;5090748;28;20688;-75
2023/05/10 04:47:02;;;;;;;48.83;11.03;;;11.50;99.90;;;;;;5090660;28;20203;-76
2023/05/10 04:49:28;;;;;;;40.20;12.37;;;11.70;99.90;;;;;;5090662;28;20187;-75
2023/05/10 04:51:53;;;;;;;38.90;10.60;;;11.60;99.90;;;;;;5093197;28;20648;-75
2023/05/10 04:54:19;;;;;;;44.83;12.50;;;11.70;99.90;;;;;;5094544;28;20247;-76
2023/05/10 04:56:45;;;;;;;43.30;12.13;;;11.70;99.90;;;;;;5094396;28;20248;-76
2023/05/10 04:59:10;;;;;;;40.90;12.20;;;11.70;99.90;;;;;;5094416;28;20165;-76
2023/05/10 05:01:36;;;;;;;44.47;12.83;;;11.80;99.90;;;;;;5094345;28;20660;-75
2023/05/10 05:04:01;;;;;;;45.20;13.70;;;11.80;99.90;;;;;;5094753;28;20249;-79
2023/05/10 05:06:27;;;;;;;45.30;14.00;;;11.80;99.90;;;;;;5076319;28;20300;-78
2023/05/10 05:08:53;;;;;;;41.83;12.23;;;11.90;99.90;;;;;;5094398;28;20508;-78
2023/05/10 05:11:18;;;;;;;41.37;13.17;;;11.90;99.90;;;;;;5094552;28;20528;-78
2023/05/10 05:13:44;;;;;;;38.00;13.80;;;11.80;99.90;;;;;;5093972;28;20171;-80
2023/05/10 05:16:10;;;;;;;37.63;13.20;;;11.80;99.90;;;;;;5076766;28;20251;-78
2023/05/10 05:18:36;;;;;;;46.43;13.43;;;11.80;99.90;;;;;;5099698;28;20168;-78
2023/05/10 05:21:02;;;;;;;35.97;12.47;;;11.90;99.90;;;;;;5101258;28;20179;-77
2023/05/10 05:23:28;;;;;;;36.97;13.53;;;11.80;99.90;;;;;;5105150;28;20172;-79
2023/05/10 05:25:54;;;;;;;41.17;13.73;;;11.90;99.90;;;;;;5075183;28;20723;-78
2023/05/10 05:28:20;;;;;;;39.40;14.67;;;11.90;99.90;;;;;;5056817;28;20552;-74
2023/05/10 05:30:46;;;;;;;42.67;14.67;;;11.80;99.90;;;;;;5076128;28;20724;-74
2023/05/10 05:33:13;;;;;;;39.73;14.80;;;11.80;99.90;;;;;;5089158;28;20294;-74
2023/05/10 05:35:39;;;;;;;39.43;14.27;;;11.80;99.90;;;;;;5081344;28;20233;-73
2023/05/10 05:38:05;;;;;;;37.63;14.33;;;11.80;99.90;;;;;;5093856;28;20556;-73
2023/05/10 05:40:31;;;;;;;43.67;13.77;;;11.80;99.90;;;;;;5093573;28;20172;-73
2023/05/10 05:42:57;;;;;;;47.07;12.00;;;11.90;99.90;;;;;;5093253;28;20621;-73
2023/05/10 05:45:22;;;;;;;34.57;11.70;;;11.90;99.90;;;;;;5093270;28;20215;-73
2023/05/10 05:47:48;;;;;;;32.47;10.70;;;;;;;;;;5093458;28;20204;-74
2023/05/10 05:50:14;;;;;;;34.03;10.77;;;12.00;99.90;;;;;;5093370;28;20585;-74
2023/05/10 05:52:40;;;;;;;35.77;10.67;;;12.10;99.90;;;;;;5084853;28;20194;-74
2023/05/10 05:55:05;;;;;;;37.17;10.70;;;12.10;99.90;;;;;;5093244;28;20663;-75
2023/05/10 05:57:31;;;;;;;35.33;10.77;;;12.20;99.90;;;;;;5093003;28;20829;-74
2023/05/10 05:59:57;;;;;;;43.07;10.53;;;12.30;99.90;;;;;;5093279;28;20530;-75
2023/05/10 06:02:22;;;;;;;28.70;8.77;;;12.40;99.90;;;;;;5092276;28;20196;-73
2023/05/10 06:04:48;;;;;;;28.58;8.23;;;12.40;99.90;;;;;;5092956;28;20171;-73
2023/05/10 06:07:14;;;;;;;25.97;7.13;;;;;;;;;;5093023;28;20242;-74
2023/05/10 06:09:39;;;;;;;30.50;7.80;;;12.60;99.90;;;;;;5092829;28;20280;-78
2023/05/10 06:12:05;;;;;;;31.83;7.03;;;12.70;99.90;;;;;;5092686;28;20546;-73
2023/05/10 06:14:31;;;;;;;30.27;5.80;;;12.90;99.90;;;;;;5092449;28;20172;-75
2023/05/10 06:16:56;;;;;;;33.00;5.97;;;12.90;99.90;;;;;;5091597;28;20275;-74
2023/05/10 06:19:22;;;;;;;36.00;5.70;;;12.90;99.90;;;;;;5082717;28;20594;-69
2023/05/10 06:21:48;;;;;;;33.47;6.45;;;13.10;99.90;;;;;;5072303;28;20187;-69
2023/05/10 06:24:13;;;;;;;27.75;5.97;;;13.80;99.90;;;;;;5091401;28;20195;-69
2023/05/10 06:26:39;;;;;;;24.65;5.03;;;13.20;99.90;;;;;;5072069;28;20606;-71
2023/05/10 06:29:04;;;;;;;25.73;4.97;;;13.30;99.90;;;;;;5079970;28;20185;-71
2023/05/10 06:31:30;;;;;;;37.65;6.55;;;13.30;99.90;;;;;;5084373;28;20259;-72
2023/05/10 06:33:56;;;;;;;29.67;4.78;;;13.40;99.90;;;;;;5092109;28;20218;-68
2023/05/10 06:36:21;;;;;;;28.85;4.88;;;13.50;99.90;;;;;;5074408;28;20607;-72
2023/05/10 06:38:47;;;;;;;28.88;5.43;;;13.60;99.90;;;;;;5071740;28;20249;-71
2023/05/10 06:41:13;;;;;;;21.27;4.22;;;13.70;99.90;;;;;;5071514;28;20248;-70
2023/05/10 06:43:41;;;;;;;19.60;3.88;;;13.60;99.90;;;;;;5072020;28;20169;-70
2023/05/10 06:46:07;;;;;;;23.02;4.30;;;13.60;99.90;;;;;;5072107;28;20223;-71
2023/05/10 06:48:32;;;;;;;29.73;4.85;;;13.80;99.90;;;;;;5071689;28;20161;-71
2023/05/10 06:50:58;;;;;;;39.58;5.05;;;13.70;99.90;;;;;;5071804;28;20230;-71
2023/05/10 06:53:24;;;;;;;23.17;4.05;;;13.70;99.90;;;;;;5053858;28;20165;-71
2023/05/10 06:55:49;;;;;;;19.13;4.47;;;13.50;99.90;;;;;;5071815;28;20297;-74
2023/05/10 06:58:15;;;;;;;31.10;4.80;;;13.60;99.90;;;;;;5071693;28;20218;-75
2023/05/10 07:00:43;;;;;;;28.27;5.23;;;13.50;99.90;;;;;;5087108;28;20180;-76
2023/05/10 07:03:11;;;;;;;24.30;4.13;;;13.50;99.90;;;;;;5075938;28;20644;-77
2023/05/10 07:05:37;;;;;;;25.13;4.93;;;13.60;99.90;;;;;;5087935;28;20206;-76
2023/05/10 07:08:03;;;;;;;27.98;5.00;;;13.80;99.90;;;;;;5091836;28;20171;-75
2023/05/10 07:10:29;;;;;;;22.90;5.53;;;13.80;99.90;;;;;;5091591;28;20683;-76
2023/05/10 07:12:55;;;;;;;25.58;5.38;;;13.90;99.90;;;;;;5091353;28;20160;-75
2023/05/10 07:15:21;;;;;;;22.98;4.95;;;13.90;99.90;;;;;;5085382;28;20770;-77
2023/05/10 07:17:46;;;;;;;24.85;5.82;;;14.00;99.90;;;;;;5081580;28;20179;-77
2023/05/10 07:20:12;;;;;;;22.65;4.13;;;14.10;99.90;;;;;;5091236;28;20186;-76
2023/05/10 07:22:38;;;;;;;19.60;4.88;;;14.10;99.90;;;;;;5091023;28;20647;-76
2023/05/10 07:25:03;;;;;;;23.45;4.20;;;14.20;99.90;;;;;;5091007;28;20213;-81
2023/05/10 07:27:29;;;;;;;23.48;4.28;;;14.20;99.90;;;;;;5091148;28;20182;-79
2023/05/10 07:29:56;;;;;;;19.10;3.72;;;14.30;99.90;;;;;;5091861;28;20569;-79
2023/05/10 07:32:21;;;;;;;19.73;4.38;;;14.20;99.90;;;;;;5091541;28;20198;-81
2023/05/10 07:34:47;;;;;;;23.13;3.67;;;14.10;99.90;;;;;;5090555;28;20180;-71
2023/05/10 07:37:13;;;;;;;31.15;4.20;;;14.30;99.90;;;;;;5091498;28;20186;-77
2023/05/10 07:39:38;;;;;;;23.48;4.30;;;14.40;99.90;;;;;;5067905;28;20172;-78
2023/05/10 07:42:04;;;;;;;23.13;5.03;;;14.70;99.90;;;;;;5063659;28;20175;-73
2023/05/10 07:44:29;;;;;;;20.95;5.05;;;14.60;99.90;;;;;;5091110;28;20527;-76
2023/05/10 07:46:55;;;;;;;22.08;4.30;;;14.40;99.90;;;;;;5091120;28;20229;-74
2023/05/10 07:49:24;;;;;;;22.75;4.20;;;14.20;99.90;;;;;;5092721;28;20171;-75
2023/05/10 07:51:49;;;;;;;26.33;4.95;;;14.10;99.90;;;;;;5087891;28;20176;-73
2023/05/10 07:54:15;;;;;;;18.08;4.28;;;14.10;99.90;;;;;;5077196;28;20171;-73
2023/05/10 07:56:45;;;;;;;25.83;4.53;;;13.90;99.90;;;;;;5086885;28;20212;-76
2023/05/10 07:59:15;;;;;;;24.35;4.82;;;13.70;99.90;;;;;;5089328;28;20179;-77
2023/05/10 08:01:42;;;;;;;22.65;3.92;;;13.40;99.90;;;;;;5080161;28;20192;-76
2023/05/10 08:04:08;;;;;;;22.77;4.45;;;13.50;99.90;;;;;;5075645;28;20198;-76
2023/05/10 08:06:34;;;;;;;21.45;4.05;;;13.40;99.90;;;;;;5071042;28;20212;-77
2023/05/10 08:09:00;;;;;;;27.58;4.38;;;13.20;99.90;;;;;;5071177;28;20666;-77
2023/05/10 08:11:27;;;;;;;20.88;4.50;;;;;;;;;;5076350;28;20317;-77
2023/05/10 08:13:53;;;;;;;31.67;5.30;;;13.50;99.90;;;;;;5090297;28;20633;-77
2023/05/10 08:16:19;;;;;;;32.43;6.33;;;13.70;99.90;;;;;;5089305;28;20214;-79
2023/05/10 08:18:46;;;;;;;25.83;4.80;;;13.70;99.90;;;;;;5073518;28;20226;-77
2023/05/10 08:21:13;;;;;;;34.88;5.75;;;13.60;99.90;;;;;;5070755;28;20629;-76
2023/05/10 08:23:39;;;;;;;31.38;5.43;;;13.60;99.90;;;;;;5085854;28;20237;-75
2023/05/10 08:26:05;;;;;;;30.13;4.78;;;13.60;99.90;;;;;;5091103;28;20199;-75
2023/05/10 08:28:31;;;;;;;23.55;4.50;;;;;;;;;;5076090;28;20182;-75
2023/05/10 08:30:57;;;;;;;27.92;4.78;;;;;;;;;;5093361;28;20202;-74
2023/05/10 08:33:22;;;;;;;30.52;5.07;;;13.90;99.90;;;;;;5074660;28;20273;-75
2023/05/10 08:35:48;;;;;;;29.02;4.55;;;;;;;;;;5093249;28;20207;-76
2023/05/10 08:38:14;;;;;;;26.88;4.90;;;14.30;99.90;;;;;;5094096;28;20179;-76
2023/05/10 08:40:44;;;;;;;18.45;4.50;;;14.40;99.90;;;;;;5087459;28;20192;-75
2023/05/10 08:43:12;;;;;;;18.95;4.05;;;14.60;99.90;;;;;;5084230;28;20762;-75
2023/05/10 08:45:40;;;;;;;30.60;5.13;;;14.80;99.90;;;;;;5094613;28;20218;-75
2023/05/10 08:48:07;;;;;;;27.77;4.45;;;14.90;99.90;;;;;;5077935;28;20190;-75
2023/05/10 08:50:36;;;;;;;28.67;4.72;;;14.90;99.90;;;;;;5074485;28;20212;-74
2023/05/10 08:53:05;;;;;;;24.13;4.60;;;15.00;99.90;;;;;;5072751;28;20309;-75
2023/05/10 08:55:39;;;;;;;27.58;4.55;;;16.70;99.90;;;;;;5073770;28;20314;-75
2023/05/10 08:58:06;;;;;;;30.83;5.43;;;15.30;99.90;;;;;;5080379;28;20652;-75
2023/05/10 09:00:32;;;;;;;22.13;5.53;;;15.20;99.90;;;;;;5084493;28;20190;-76
2023/05/10 09:02:59;;;;;;;24.45;5.78;;;15.30;99.90;;;;;;5093358;28;20667;-74
2023/05/10 09:05:25;;;;;;;29.10;6.30;;;15.50;99.90;;;;;;5093256;28;20196;-75
2023/05/10 09:07:50;;;;;;;23.30;4.82;;;15.70;99.90;;;;;;5082015;28;20172;-76
2023/05/10 09:10:17;;;;;;;28.17;6.20;;;;;;;;;;5073887;28;20184;-74
2023/05/10 09:12:45;;;;;;;28.42;5.45;;;15.50;99.90;;;;;;5081890;28;20509;-75
2023/05/10 09:15:11;;;;;;;23.58;5.80;;;15.50;99.90;;;;;;5085657;28;20263;-76
2023/05/10 09:17:40;;;;;;;28.35;6.07;;;15.30;99.90;;;;;;5091044;28;20179;-76
2023/05/10 09:20:06;;;;;;;23.23;5.10;;;15.20;99.90;;;;;;5093452;28;20171;-75
2023/05/10 09:22:33;;;;;;;22.35;5.35;;;15.20;99.90;;;;;;5091422;28;20659;-75
2023/05/10 09:25:13;;;;;;;30.77;5.95;;;15.20;99.90;;;;;;5054515;28;20212;-76
2023/05/10 09:27:40;;;;;;;25.73;4.55;;;15.10;99.90;;;;;;5088721;28;20662;-75
2023/05/10 09:30:07;;;;;;;29.92;5.18;;;14.90;99.90;;;;;;5091980;28;20179;-74
2023/05/10 09:32:44;;;;;;;28.63;5.22;;;14.90;99.90;;;;;;5073867;28;20674;-73
2023/05/10 09:35:18;;;;;;;26.08;5.15;;;15.10;99.90;;;;;;5092659;28;20685;-74
2023/05/10 09:37:48;;;;;;;27.30;5.15;;;14.80;99.90;;;;;;5085734;28;20188;-73
2023/05/10 09:40:16;;;;;;;26.60;4.55;;;14.90;99.90;;;;;;5078847;28;20665;-74
2023/05/10 09:42:50;;;;;;;26.80;4.82;;;15.00;99.90;;;;;;5077475;28;20192;-75
2023/05/10 09:45:15;;;;;;;28.80;4.07;;;15.30;99.90;;;;;;5075012;28;20178;-74
2023/05/10 09:47:41;;;;;;;26.50;4.65;;;14.90;99.90;;;;;;5072771;28;20544;-75
2023/05/10 09:50:07;;;;;;;30.20;4.80;;;15.20;99.90;;;;;;5072570;28;20201;-74
2023/05/10 09:52:58;;;;;;;37.90;5.40;;;15.40;99.90;;;;;;5073093;28;20176;-75
2023/05/10 09:55:39;;;;;;;27.05;4.28;;;16.40;99.90;;;;;;5072947;28;20215;-74
2023/05/10 09:58:09;;;;;;;26.23;4.30;;;17.20;99.90;;;;;;5073493;28;20200;-74
2023/05/10 10:00:47;;;;;;;16.55;4.32;;;17.40;99.90;;;;;;5072869;28;20652;-74
2023/05/10 10:03:20;;;;;;;29.27;4.57;;;17.20;99.90;;;;;;5073062;28;20175;-74
2023/05/10 10:05:47;;;;;;;21.73;3.80;;;17.40;99.90;;;;;;5087144;28;20215;-74
2023/05/10 10:08:14;;;;;;;19.00;3.72;;;17.50;99.90;;;;;;5071065;28;20161;-74
2023/05/10 10:10:40;;;;;;;23.27;3.63;;;17.30;99.90;;;;;;5071963;28;20168;-75
2023/05/10 10:13:07;;;;;;;19.17;3.60;;;16.90;99.90;;;;;;5072657;28;20652;-74
2023/05/10 10:15:36;;;;;;;20.67;3.75;;;17.30;99.90;;;;;;5073180;28;20169;-73
2023/05/10 10:18:03;;;;;;;23.08;3.35;;;16.70;99.90;;;;;;5073760;28;20169;-74
2023/05/10 10:20:29;;;;;;;16.83;2.88;;;17.30;99.90;;;;;;5074287;28;20172;-74
2023/05/10 10:22:55;;;;;;;13.57;2.92;;;17.70;99.90;;;;;;5074511;28;20697;-73
2023/05/10 10:25:21;;;;;;;16.25;2.63;;;18.10;99.90;;;;;;5073489;28;20709;-73
2023/05/10 10:27:53;;;;;;;14.93;2.72;;;18.70;99.90;;;;;;5079012;28;20177;-72
2023/05/10 10:30:37;;;;;;;23.98;3.97;;;17.80;99.90;;;;;;5087084;28;20182;-73
2023/05/10 10:33:27;;;;;;;25.67;3.75;;;17.20;99.90;;;;;;5093447;28;20254;-74
2023/05/10 10:35:54;;;;;;;17.83;3.08;;;17.30;99.90;;;;;;5087611;28;20510;-74
2023/05/10 10:38:20;;;;;;;29.48;4.53;;;17.10;99.90;;;;;;5054882;28;20254;-74
2023/05/10 10:40:47;;;;;;;25.60;4.15;;;17.10;99.90;;;;;;5054632;28;20753;-73
2023/05/10 10:43:27;;;;;;;31.70;4.20;;;16.70;99.90;;;;;;5073791;28;20289;-73
2023/05/10 10:46:17;;;;;;;23.73;3.90;;;16.40;99.90;;;;;;5072972;28;20214;-74
2023/05/10 10:49:14;;;;;;;16.23;3.15;;;16.60;99.90;;;;;;5083213;28;20214;-74
2023/05/10 10:51:40;;;;;;;20.83;3.70;;;16.90;99.90;;;;;;5079977;28;20252;-74
2023/05/10 10:54:10;;;;;;;24.08;3.85;;;17.00;99.90;;;;;;5093606;28;20171;-74
2023/05/10 10:56:35;;;;;;;18.73;3.65;;;16.90;99.90;;;;;;5092616;28;20245;-73
2023/05/10 10:59:01;;;;;;;19.85;3.40;;;16.80;99.90;;;;;;5092514;28;20172;-73
2023/05/10 11:01:35;;;;;;;19.00;3.85;;;16.80;99.90;;;;;;5092556;28;20172;-74
2023/05/10 11:04:00;;;;;;;18.58;3.17;;;16.50;99.90;;;;;;5092583;28;20196;-75
2023/05/10 11:06:34;;;;;;;25.60;4.60;;;16.50;99.90;;;;;;5092240;28;20764;-74
2023/05/10 11:09:09;;;;;;;22.02;3.63;;;16.10;99.90;;;;;;5092427;28;20167;-74
2023/05/10 11:11:35;;;;;;;16.67;3.10;;;16.00;99.90;;;;;;5092300;28;20247;-74
2023/05/10 11:14:06;;;;;;;19.25;3.55;;;16.00;99.90;;;;;;5092366;28;20172;-74
2023/05/10 11:16:44;;;;;;;17.90;3.00;;;16.00;99.90;;;;;;5073858;28;20543;-73
2023/05/10 11:19:15;;;;;;;19.20;3.50;;;16.20;99.90;;;;;;5092149;28;20168;-74
2023/05/10 11:21:49;;;;;;;24.42;4.45;;;16.20;99.90;;;;;;5092885;28;20194;-75
2023/05/10 11:24:17;;;;;;;22.95;4.00;;;16.10;99.90;;;;;;5089020;28;20171;-75
2023/05/10 11:26:43;;;;;;;21.52;3.47;;;16.40;99.90;;;;;;5071498;28;20236;-73
2023/05/10 11:29:09;;;;;;;15.93;3.72;;;16.80;99.90;;;;;;5071547;28;20206;-74
2023/05/10 11:31:35;;;;;;;19.23;2.78;;;17.10;99.90;;;;;;5071714;28;20172;-73
2023/05/10 11:34:04;;;;;;;19.33;2.65;;;17.20;99.90;;;;;;5071430;28;20704;-74
2023/05/10 11:36:33;;;;;;;16.88;2.95;;;17.30;99.90;;;;;;5054839;28;20184;-75
2023/05/10 11:39:00;;;;;;;18.30;3.13;;;18.00;99.90;;;;;;5073062;28;20200;-74
2023/05/10 11:41:28;;;;;;;15.13;2.20;;;18.00;99.90;;;;;;5071999;28;20226;-75
2023/05/10 11:43:54;;;;;;;15.23;3.08;;;18.30;99.90;;;;;;5072092;28;20248;-74
2023/05/10 11:46:22;;;;;;;16.33;2.95;;;19.20;99.90;;;;;;5071666;28;20215;-74
2023/05/10 11:48:53;;;;;;;11.77;2.72;;;19.30;99.90;;;;;;5053290;28;20640;-74
2023/05/10 11:51:23;;;;;;;21.15;3.40;;;18.70;1.00;;;;;;5071274;28;20192;-73
2023/05/10 11:53:50;;;;;;;16.02;2.80;;;18.90;29.50;;;;;;5071024;28;20248;-73
2023/05/10 11:56:16;;;;;;;20.77;3.08;;;18.80;1.00;;;;;;5071028;28;20233;-73
2023/05/10 11:58:41;;;;;;;16.40;3.15;;;18.80;70.70;;;;;;5071098;28;20192;-73
2023/05/10 12:01:09;;;;;;;15.35;2.95;;;18.50;51.50;;;;;;5070974;28;20226;-74
2023/05/10 12:03:35;;;;;;;16.77;2.88;;;18.20;1.00;;;;;;5053201;28;20228;-74
2023/05/10 12:06:02;;;;;;;13.75;2.60;;;;;;;;;;5071201;28;20223;-73
2023/05/10 12:08:29;;;;;;;18.67;3.50;;;17.90;1.00;;;;;;5070948;28;20200;-72
2023/05/10 12:11:07;;;;;;;15.82;3.08;;;17.90;1.00;;;;;;5086098;28;20678;-74
2023/05/10 12:13:37;;;;;;;17.25;3.72;;;17.60;1.00;;;;;;5080997;28;20632;-72
2023/05/10 12:16:16;;;;;;;14.25;2.75;;;17.90;1.00;;;;;;5090901;28;20184;-73
2023/05/10 12:18:42;;;;;;;13.65;2.30;;;17.90;1.00;;;;;;5090866;28;20168;-73
2023/05/10 12:21:10;;;;;;;8.82;2.40;;;17.60;1.00;;;;;;5090840;28;20225;-73
2023/05/10 12:23:36;;;;;;;13.73;2.40;;;17.50;1.00;;;;;;5089353;28;20650;-74
2023/05/10 12:26:05;;;;;;;13.70;2.97;;;17.60;1.00;;;;;;5072789;28;20220;-73
2023/05/10 12:28:32;;;;;;;14.93;2.13;;;17.70;1.00;;;;;;5072723;28;20172;-73
2023/05/10 12:30:59;;;;;;;11.38;2.28;;;17.70;1.00;;;;;;5083785;28;20176;-73
2023/05/10 12:33:25;;;;;;;14.10;3.22;;;18.60;1.00;;;;;;5071557;28;20254;-72
2023/05/10 12:35:53;;;;;;;14.38;3.22;;;19.40;1.00;;;;;;5078116;28;20184;-72
2023/05/10 12:38:47;;;;;;;18.35;2.72;;;19.30;1.00;;;;;;5090828;28;20217;-72
2023/05/10 12:41:16;;;;;;;11.18;2.42;;;20.10;25.60;;;;;;5056596;28;20183;-74